Time;durP1;ratioP1;P1;durP2;ratioP2;P2;SDS_P1;SDS_P2;PMS_P1;PMS_P2;Temp;Humidity;BMP_temperature;BMP_pressure;BME280_temperature;BME280_humidity;BME280_pressure;Samples;Min_cycle;Max_cycle;Signal;HPM_P1;HPM_P2
2021/03/22 05:00:41;;;;;;;20.85;6.18;;;2.40;99.90;;;;;;5761275;23;20529;-71
2021/03/22 05:03:09;;;;;;;20.02;6.07;;;2.40;99.90;;;;;;4953957;29;20663;-71
2021/03/22 05:05:37;;;;;;;11.77;5.47;;;2.40;99.90;;;;;;4954483;28;20300;-71
2021/03/22 05:08:04;;;;;;;16.83;5.88;;;2.50;99.90;;;;;;4953662;29;20205;-71
2021/03/22 05:10:33;;;;;;;16.42;6.32;;;2.50;99.90;;;;;;4951654;29;20230;-71
2021/03/22 05:13:00;;;;;;;17.98;5.72;;;2.50;99.90;;;;;;4931657;29;20206;-71
2021/03/22 05:15:27;;;;;;;11.45;5.00;;;2.50;99.90;;;;;;4917485;29;20214;-71
2021/03/22 05:17:54;;;;;;;28.20;6.72;;;2.50;99.90;;;;;;4917952;29;20905;-71
2021/03/22 05:20:23;;;;;;;19.65;7.43;;;2.50;99.90;;;;;;4933470;29;20243;-71
2021/03/22 05:22:50;;;;;;;17.73;6.10;;;2.60;99.90;;;;;;4933559;29;20213;-72
2021/03/22 05:25:17;;;;;;;17.20;6.72;;;2.60;99.90;;;;;;4916236;29;20214;-71
2021/03/22 05:27:44;;;;;;;18.60;5.90;;;2.70;99.90;;;;;;4934491;29;20214;-71
2021/03/22 05:30:13;;;;;;;12.05;6.45;;;2.70;99.90;;;;;;4916517;29;20222;-72
2021/03/22 05:32:39;;;;;;;20.88;8.05;;;2.70;99.90;;;;;;4917232;29;20206;-71
2021/03/22 05:35:08;;;;;;;18.13;5.97;;;2.80;99.90;;;;;;4916967;29;20274;-71
2021/03/22 05:37:35;;;;;;;17.58;6.82;;;2.80;99.90;;;;;;4917838;29;20207;-72
2021/03/22 05:40:01;;;;;;;20.90;7.38;;;2.80;99.90;;;;;;4915979;29;20266;-72
2021/03/22 05:42:41;;;;;;;17.67;6.97;;;2.90;99.90;;;;;;4930686;29;20292;-71
2021/03/22 05:45:26;;;;;;;17.25;5.95;;;2.90;99.90;;;;;;4928730;29;20210;-72
2021/03/22 05:48:00;;;;;;;23.83;7.53;;;2.90;99.90;;;;;;4915504;29;20211;-71
2021/03/22 05:50:32;;;;;;;24.65;7.03;;;3.00;99.90;;;;;;4923087;29;20640;-72
2021/03/22 05:53:09;;;;;;;18.20;7.00;;;3.00;99.90;;;;;;4926785;29;20211;-71
2021/03/22 05:55:48;;;;;;;25.38;7.00;;;3.00;99.90;;;;;;4917242;29;20542;-71
2021/03/22 05:58:41;;;;;;;17.67;6.63;;;3.10;99.90;;;;;;4915504;29;20285;-71
2021/03/22 06:01:18;;;;;;;14.13;7.55;;;3.10;99.90;;;;;;4920314;29;20242;-71
2021/03/22 06:03:51;;;;;;;23.15;7.53;;;3.10;99.90;;;;;;4917752;29;20207;-71
2021/03/22 06:06:23;;;;;;;25.63;7.10;;;3.20;99.90;;;;;;4917372;29;20643;-72
2021/03/22 06:08:54;;;;;;;23.67;7.60;;;3.20;99.90;;;;;;4923815;29;20690;-71
2021/03/22 06:11:30;;;;;;;15.43;7.97;;;3.20;99.90;;;;;;4916376;29;20226;-71
2021/03/22 06:14:00;;;;;;;19.33;7.30;;;3.30;99.90;;;;;;4915603;29;20738;-71
2021/03/22 06:16:34;;;;;;;19.05;7.57;;;3.30;99.90;;;;;;4920266;29;20234;-74
2021/03/22 06:19:03;;;;;;;17.73;7.90;;;3.30;99.90;;;;;;4934564;29;20324;-72
2021/03/22 06:21:34;;;;;;;26.95;8.13;;;3.40;99.90;;;;;;4916067;29;20314;-72
2021/03/22 06:24:06;;;;;;;34.72;11.55;;;3.40;99.90;;;;;;4917507;29;20217;-72
2021/03/22 06:26:36;;;;;;;21.48;8.48;;;3.40;99.90;;;;;;4917445;29;20215;-72
2021/03/22 06:29:07;;;;;;;19.42;9.27;;;3.50;99.90;;;;;;4934240;29;20578;-72
2021/03/22 06:31:35;;;;;;;24.45;8.73;;;3.50;99.90;;;;;;4916095;29;20223;-71
2021/03/22 06:34:06;;;;;;;28.15;9.25;;;3.50;99.90;;;;;;4915236;29;20585;-71
2021/03/22 06:36:33;;;;;;;27.17;12.18;;;3.60;99.90;;;;;;4915506;29;20751;-72
2021/03/22 06:39:02;;;;;;;34.35;10.10;;;3.60;99.90;;;;;;4915886;29;20283;-72
2021/03/22 06:41:38;;;;;;;25.15;9.88;;;3.60;99.90;;;;;;4915305;29;20230;-72
2021/03/22 06:44:08;;;;;;;30.05;11.95;;;3.70;99.90;;;;;;4915329;29;20217;-72
2021/03/22 06:46:37;;;;;;;23.38;10.35;;;3.70;99.90;;;;;;4933450;29;20202;-71
2021/03/22 06:49:06;;;;;;;23.23;11.30;;;3.70;99.90;;;;;;4936396;29;20206;-71
2021/03/22 06:51:33;;;;;;;28.00;11.50;;;3.80;99.90;;;;;;4937394;29;20226;-70
2021/03/22 06:54:01;;;;;;;31.63;13.60;;;3.80;99.90;;;;;;4920047;29;20202;-72
2021/03/22 06:56:30;;;;;;;24.48;11.23;;;3.90;99.90;;;;;;4919782;29;20206;-73
2021/03/22 06:59:14;;;;;;;25.30;10.85;;;3.90;99.90;;;;;;4918668;29;20210;-72
2021/03/22 07:01:43;;;;;;;26.92;13.60;;;4.00;99.90;;;;;;4922713;29;20226;-71
2021/03/22 07:04:20;;;;;;;26.77;12.98;;;4.10;99.90;;;;;;4940131;29;20209;-72
2021/03/22 07:07:06;;;;;;;28.85;13.18;;;4.20;99.90;;;;;;4936666;29;20740;-71
2021/03/22 07:09:33;;;;;;;21.52;11.85;;;4.20;99.90;;;;;;4936017;29;20228;-71
2021/03/22 07:12:00;;;;;;;30.02;12.50;;;4.40;99.90;;;;;;4937406;29;20317;-71
2021/03/22 07:14:29;;;;;;;30.42;13.30;;;4.30;99.90;;;;;;4920335;29;20298;-71
2021/03/22 07:17:04;;;;;;;27.30;12.88;;;4.40;99.90;;;;;;4918794;29;20218;-71
2021/03/22 07:19:30;;;;;;;35.67;12.98;;;4.50;99.90;;;;;;4920996;29;20205;-71
2021/03/22 07:22:00;;;;;;;23.60;11.93;;;4.50;99.90;;;;;;4937599;29;20245;-71
2021/03/22 07:24:34;;;;;;;22.08;11.90;;;4.60;99.90;;;;;;4923930;29;20579;-71
2021/03/22 07:27:19;;;;;;;25.85;11.90;;;4.70;99.90;;;;;;4924817;29;20266;-71
2021/03/22 07:30:08;;;;;;;23.42;13.38;;;4.80;99.90;;;;;;4922115;29;20202;-71
2021/03/22 07:32:47;;;;;;;28.77;12.60;;;4.80;99.90;;;;;;4926076;29;20213;-71
2021/03/22 07:35:56;;;;;;;19.98;12.23;;;4.90;99.90;;;;;;4947038;28;20194;-72
2021/03/22 07:38:58;;;;;;;22.25;11.20;;;5.00;99.90;;;;;;4927803;29;20238;-71
2021/03/22 07:41:35;;;;;;;22.92;12.40;;;5.00;99.90;;;;;;4921615;29;20430;-71
2021/03/22 07:44:20;;;;;;;17.17;11.10;;;5.00;99.90;;;;;;4934152;29;20674;-71
2021/03/22 07:47:03;;;;;;;25.77;10.27;;;5.10;99.90;;;;;;4936314;29;20206;-72
2021/03/22 07:49:50;;;;;;;18.95;9.60;;;5.10;99.90;;;;;;4923143;29;20230;-72
2021/03/22 07:52:29;;;;;;;24.50;13.30;;;5.20;99.90;;;;;;4916159;29;20951;-72
2021/03/22 07:55:09;;;;;;;20.42;10.00;;;5.30;99.90;;;;;;4918725;29;20210;-72
2021/03/22 07:57:44;;;;;;;24.65;12.45;;;5.30;99.90;;;;;;4916841;29;20558;-72
2021/03/22 08:00:22;;;;;;;21.77;12.77;;;5.20;99.90;;;;;;4916848;29;20238;-73
2021/03/22 08:03:04;;;;;;;25.50;11.50;;;5.20;99.90;;;;;;4926743;29;20202;-72
2021/03/22 08:05:42;;;;;;;25.35;12.35;;;5.20;99.90;;;;;;4924684;29;20202;-72
2021/03/22 08:08:18;;;;;;;18.15;10.13;;;5.20;99.90;;;;;;4926560;29;20234;-72
2021/03/22 08:10:55;;;;;;;24.15;12.52;;;5.30;99.90;;;;;;4933909;29;20221;-72
2021/03/22 08:13:36;;;;;;;24.73;11.52;;;5.30;99.90;;;;;;4933456;29;20256;-72
2021/03/22 08:16:22;;;;;;;19.85;12.13;;;5.40;99.90;;;;;;4917673;29;20214;-72
2021/03/22 08:18:52;;;;;;;16.13;9.55;;;5.40;99.90;;;;;;4926985;29;20206;-72
2021/03/22 08:21:23;;;;;;;27.75;11.88;;;5.40;99.90;;;;;;4935680;29;20237;-73
2021/03/22 08:23:52;;;;;;;26.95;12.43;;;5.40;99.90;;;;;;4929058;29;20214;-73
2021/03/22 08:26:25;;;;;;;15.85;10.60;;;5.40;99.90;;;;;;4935717;29;20216;-73
2021/03/22 08:29:02;;;;;;;18.35;11.05;;;5.60;99.90;;;;;;4920326;29;20210;-70
2021/03/22 08:31:36;;;;;;;19.42;11.05;;;5.80;99.90;;;;;;4934810;29;20268;-70
2021/03/22 08:34:08;;;;;;;25.20;12.70;;;5.90;99.90;;;;;;4923280;29;20210;-70
2021/03/22 08:36:43;;;;;;;25.27;12.25;;;5.90;99.90;;;;;;4917331;29;20210;-70
2021/03/22 08:39:23;;;;;;;20.88;11.73;;;5.90;99.90;;;;;;4924570;29;20206;-70
2021/03/22 08:42:08;;;;;;;21.98;11.93;;;6.00;99.90;;;;;;4923044;29;20226;-71
2021/03/22 08:44:38;;;;;;;18.88;10.95;;;6.10;99.90;;;;;;4930504;29;20198;-71
2021/03/22 08:47:16;;;;;;;16.25;11.73;;;6.30;99.90;;;;;;4937196;29;20523;-72
2021/03/22 08:49:50;;;;;;;15.07;9.63;;;6.20;99.90;;;;;;4928209;29;20242;-72
2021/03/22 08:52:26;;;;;;;18.05;8.95;;;6.20;99.90;;;;;;4924832;29;20241;-73
2021/03/22 08:55:08;;;;;;;12.98;9.80;;;6.20;99.90;;;;;;4917729;29;20293;-73
2021/03/22 08:57:46;;;;;;;17.83;10.10;;;6.30;99.90;;;;;;4926183;29;20221;-73
2021/03/22 09:00:25;;;;;;;15.98;9.23;;;6.50;99.90;;;;;;4918231;29;20671;-73
2021/03/22 09:02:54;;;;;;;13.55;8.68;;;6.50;99.90;;;;;;4933386;29;20209;-73
2021/03/22 09:05:23;;;;;;;12.85;8.80;;;6.60;99.90;;;;;;4937201;29;20217;-73
2021/03/22 09:07:49;;;;;;;17.30;9.75;;;6.60;99.90;;;;;;4926575;29;20210;-73
2021/03/22 09:10:29;;;;;;;18.27;9.70;;;6.70;99.90;;;;;;4927342;29;20198;-72
2021/03/22 09:13:20;;;;;;;13.90;8.60;;;6.70;99.90;;;;;;4922593;29;20293;-73
2021/03/22 09:15:59;;;;;;;13.52;9.32;;;6.70;99.90;;;;;;4930998;29;20213;-72
2021/03/22 09:18:26;;;;;;;15.25;8.55;;;6.80;99.90;;;;;;4934480;29;20213;-72
2021/03/22 09:21:17;;;;;;;12.10;7.32;;;6.90;99.90;;;;;;4936562;29;20667;-73
2021/03/22 09:23:45;;;;;;;13.05;7.40;;;6.90;99.90;;;;;;4938877;29;20260;-72
2021/03/22 09:26:12;;;;;;;10.85;6.55;;;6.90;99.90;;;;;;4933482;29;20709;-73
2021/03/22 09:28:58;;;;;;;6.85;6.15;;;6.90;99.90;;;;;;4935789;29;20237;-73
2021/03/22 09:31:41;;;;;;;8.80;6.70;;;6.90;99.90;;;;;;4929407;29;20226;-73
2021/03/22 09:34:43;;;;;;;8.90;6.47;;;6.90;99.90;;;;;;4935737;29;20224;-72
2021/03/22 09:37:43;;;;;;;10.15;7.22;;;7.00;99.90;;;;;;4931712;29;20216;-73
2021/03/22 09:40:34;;;;;;;15.70;8.13;;;6.90;99.90;;;;;;4934651;29;20499;-73
2021/03/22 09:43:20;;;;;;;15.75;9.00;;;7.10;99.90;;;;;;4919840;29;20606;-73
2021/03/22 09:46:15;;;;;;;12.10;7.63;;;7.20;99.90;;;;;;4937685;29;20209;-71
2021/03/22 09:48:41;;;;;;;12.75;8.27;;;7.30;99.90;;;;;;4933180;29;20210;-72
2021/03/22 09:51:32;;;;;;;15.88;7.63;;;7.30;99.90;;;;;;4930102;29;20253;-71
2021/03/22 09:54:00;;;;;;;16.10;7.10;;;7.30;99.90;;;;;;4917155;29;20210;-69
2021/03/22 09:56:31;;;;;;;8.55;5.72;;;7.20;99.90;;;;;;4916215;29;20293;-68
2021/03/22 09:59:21;;;;;;;10.35;5.72;;;7.20;99.90;;;;;;4920569;29;20563;-69
2021/03/22 10:01:48;;;;;;;9.77;5.75;;;7.20;99.90;;;;;;4929180;29;20234;-69
2021/03/22 10:04:31;;;;;;;9.18;6.25;;;7.20;99.90;;;;;;4929638;29;20206;-73
2021/03/22 10:07:21;;;;;;;7.30;5.57;;;7.20;99.90;;;;;;4935850;29;20550;-73
2021/03/22 10:09:53;;;;;;;8.70;6.80;;;7.30;99.90;;;;;;4933973;29;20210;-73
2021/03/22 10:12:22;;;;;;;7.72;6.28;;;7.40;99.90;;;;;;4934062;29;20225;-73
2021/03/22 10:15:18;;;;;;;8.52;6.43;;;7.50;99.90;;;;;;4934827;29;20693;-73
2021/03/22 10:17:52;;;;;;;8.68;5.60;;;7.50;99.90;;;;;;4924499;29;20210;-73
2021/03/22 10:20:25;;;;;;;11.63;7.00;;;7.60;99.90;;;;;;4946509;29;20209;-72
2021/03/22 10:23:00;;;;;;;13.45;7.38;;;7.70;99.90;;;;;;4930139;29;20305;-73
2021/03/22 10:25:30;;;;;;;11.45;7.22;;;7.70;99.90;;;;;;4938348;29;20655;-72
2021/03/22 10:28:01;;;;;;;10.93;5.75;;;7.70;99.90;;;;;;4939213;29;20276;-73
2021/03/22 10:30:28;;;;;;;8.13;5.95;;;7.80;99.90;;;;;;4938646;29;20702;-73
2021/03/22 10:32:59;;;;;;;12.38;7.03;;;7.90;99.90;;;;;;4939625;29;20213;-72
2021/03/22 10:35:38;;;;;;;11.70;5.40;;;7.90;99.90;;;;;;4924934;29;20209;-72
2021/03/22 10:38:04;;;;;;;8.95;6.50;;;7.90;99.90;;;;;;4922165;29;20282;-72
2021/03/22 10:40:37;;;;;;;9.07;8.00;;;7.90;99.90;;;;;;4924373;29;20230;-73
2021/03/22 10:43:04;;;;;;;10.32;6.68;;;8.00;99.90;;;;;;4921746;29;20227;-74
2021/03/22 10:45:40;;;;;;;7.35;6.07;;;8.10;99.90;;;;;;4921170;29;20728;-73
2021/03/22 10:48:26;;;;;;;5.15;4.72;;;8.20;99.90;;;;;;4922285;29;20674;-73
2021/03/22 10:51:14;;;;;;;12.38;6.18;;;8.20;99.90;;;;;;4922825;29;20683;-73
2021/03/22 10:53:58;;;;;;;5.15;4.43;;;8.20;99.90;;;;;;4919564;29;20321;-73
2021/03/22 10:56:30;;;;;;;8.75;4.55;;;8.30;99.90;;;;;;4919926;29;20241;-73
2021/03/22 10:58:59;;;;;;;5.57;4.38;;;8.40;99.90;;;;;;4932296;29;20202;-73
2021/03/22 11:01:32;;;;;;;4.85;3.90;;;8.40;99.90;;;;;;4952864;29;20249;-73
2021/03/22 11:04:03;;;;;;;4.97;4.32;;;8.40;99.90;;;;;;4920576;29;20247;-73
2021/03/22 11:06:32;;;;;;;6.60;4.80;;;8.40;99.90;;;;;;4919580;29;20246;-72
2021/03/22 11:09:02;;;;;;;5.57;4.00;;;8.40;99.90;;;;;;4934752;29;20568;-72
2021/03/22 11:11:31;;;;;;;5.80;3.97;;;8.50;99.90;;;;;;4940977;29;20340;-72
2021/03/22 11:14:01;;;;;;;6.72;4.25;;;8.50;99.90;;;;;;4923156;29;20675;-72
2021/03/22 11:16:31;;;;;;;6.30;4.13;;;8.60;99.90;;;;;;4933525;29;20217;-72
2021/03/22 11:18:58;;;;;;;20.52;6.60;;;8.70;99.90;;;;;;4922603;29;20683;-70
2021/03/22 11:21:28;;;;;;;10.07;4.90;;;8.80;99.90;;;;;;4940358;29;20593;-71
2021/03/22 11:23:56;;;;;;;11.02;4.65;;;8.90;99.90;;;;;;4925722;29;20203;-71
2021/03/22 11:26:25;;;;;;;7.70;5.47;;;9.00;99.90;;;;;;4939751;29;20206;-72
2021/03/22 11:28:52;;;;;;;5.63;4.60;;;9.00;99.90;;;;;;4932877;29;20210;-72
2021/03/22 11:31:24;;;;;;;11.05;4.57;;;9.10;99.90;;;;;;4933483;29;20230;-72
2021/03/22 11:34:00;;;;;;;8.20;3.90;;;9.20;99.90;;;;;;4931012;29;20666;-72
2021/03/22 11:36:37;;;;;;;8.43;4.13;;;9.20;99.90;;;;;;4928755;29;20205;-72
2021/03/22 11:39:13;;;;;;;4.65;3.00;;;9.20;99.90;;;;;;4938478;29;20669;-72
2021/03/22 11:41:41;;;;;;;5.20;4.13;;;9.30;99.90;;;;;;4940101;29;20218;-72
2021/03/22 11:44:22;;;;;;;5.07;3.60;;;9.30;99.90;;;;;;4936736;29;20210;-73
2021/03/22 11:46:50;;;;;;;7.00;4.28;;;9.30;99.90;;;;;;4920155;29;20226;-72
2021/03/22 11:49:38;;;;;;;6.32;3.83;;;9.40;99.90;;;;;;4921829;29;20225;-72
2021/03/22 11:52:16;;;;;;;5.68;3.55;;;9.40;99.90;;;;;;4919971;29;20622;-71
2021/03/22 11:54:51;;;;;;;4.85;2.75;;;9.50;99.90;;;;;;4922340;29;20221;-72
2021/03/22 11:57:19;;;;;;;3.65;3.35;;;9.40;99.90;;;;;;4929873;29;20212;-71
2021/03/22 11:59:52;;;;;;;5.78;3.17;;;9.40;99.90;;;;;;4938447;29;20226;-72
2021/03/22 12:02:28;;;;;;;6.53;3.40;;;9.40;99.90;;;;;;4923651;29;20225;-73
2021/03/22 12:04:57;;;;;;;5.38;3.60;;;9.50;99.90;;;;;;4934766;29;20203;-72
2021/03/22 12:07:40;;;;;;;3.72;3.28;;;9.60;99.90;;;;;;4920117;29;20206;-73
2021/03/22 12:10:16;;;;;;;5.68;2.85;;;9.60;99.90;;;;;;4924858;29;20210;-73
2021/03/22 12:12:42;;;;;;;4.35;2.47;;;9.70;99.90;;;;;;4934462;29;20263;-72
2021/03/22 12:15:10;;;;;;;3.60;2.75;;;9.80;99.90;;;;;;4918830;29;20206;-72
2021/03/22 12:17:39;;;;;;;8.27;3.47;;;9.80;99.90;;;;;;4916726;29;20285;-71
2021/03/22 12:20:07;;;;;;;3.95;3.65;;;9.90;99.90;;;;;;4920378;29;20210;-71
2021/03/22 12:22:34;;;;;;;6.50;3.30;;;9.90;99.90;;;;;;4933760;29;20234;-71
2021/03/22 12:25:01;;;;;;;6.65;3.47;;;9.90;99.90;;;;;;4925308;29;20663;-68
2021/03/22 12:27:27;;;;;;;4.88;3.70;;;10.00;99.90;;;;;;4924673;29;20228;-68
2021/03/22 12:29:53;;;;;;;4.97;3.45;;;10.00;99.90;;;;;;4916916;29;20238;-71
2021/03/22 12:32:23;;;;;;;5.72;4.55;;;10.00;99.90;;;;;;4916491;29;20222;-71
2021/03/22 12:34:49;;;;;;;3.92;3.60;;;10.00;99.90;;;;;;4917498;29;20210;-71
2021/03/22 12:37:25;;;;;;;3.72;3.53;;;10.00;99.90;;;;;;4916628;29;20218;-71
2021/03/22 12:39:53;;;;;;;4.28;3.90;;;10.10;99.90;;;;;;4917190;29;20246;-71
2021/03/22 12:42:21;;;;;;;5.32;4.30;;;10.10;99.90;;;;;;4916564;29;20234;-72
2021/03/22 12:44:47;;;;;;;3.63;3.38;;;10.00;99.90;;;;;;4924099;29;20225;-72
2021/03/22 12:47:18;;;;;;;4.25;3.28;;;10.10;99.90;;;;;;4935025;29;20210;-72
2021/03/22 12:49:46;;;;;;;5.32;4.93;;;10.20;99.90;;;;;;4935519;29;20206;-72
2021/03/22 12:52:12;;;;;;;5.80;3.90;;;10.40;99.90;;;;;;4935481;29;20686;-72
2021/03/22 12:54:38;;;;;;;4.45;3.72;;;10.40;99.90;;;;;;4930729;29;20208;-71
2021/03/22 12:57:06;;;;;;;6.22;4.05;;;10.40;99.90;;;;;;4916388;29;20221;-71
2021/03/22 12:59:35;;;;;;;3.95;3.63;;;10.20;99.90;;;;;;4915892;29;20220;-72
2021/03/22 13:02:10;;;;;;;4.68;4.28;;;10.10;99.90;;;;;;4915881;29;20671;-71
2021/03/22 13:04:36;;;;;;;4.68;4.38;;;10.10;99.90;;;;;;4922101;29;20201;-71
2021/03/22 13:07:02;;;;;;;4.38;4.07;;;10.20;99.90;;;;;;4935297;29;20241;-71
2021/03/22 13:09:29;;;;;;;5.07;4.57;;;10.30;99.90;;;;;;4935188;29;20209;-71
2021/03/22 13:11:55;;;;;;;5.25;4.85;;;10.40;99.90;;;;;;4936146;29;20293;-72
2021/03/22 13:14:22;;;;;;;4.88;4.60;;;10.50;99.90;;;;;;4931291;29;20273;-71
2021/03/22 13:16:48;;;;;;;4.78;4.32;;;10.60;99.90;;;;;;4915623;29;20305;-70
2021/03/22 13:19:15;;;;;;;4.88;4.57;;;10.60;99.90;;;;;;4915755;29;20671;-70
2021/03/22 13:21:42;;;;;;;7.28;5.20;;;10.70;99.90;;;;;;4916415;29;20234;-69
2021/03/22 13:24:10;;;;;;;5.55;4.35;;;10.80;99.90;;;;;;4918018;29;20211;-70
2021/03/22 13:26:36;;;;;;;7.35;4.10;;;10.90;99.90;;;;;;4940212;29;20213;-73
2021/03/22 13:29:03;;;;;;;4.32;4.03;;;10.90;99.90;;;;;;4939445;29;20220;-73
2021/03/22 13:31:33;;;;;;;5.55;4.97;;;11.00;99.90;;;;;;4938953;29;20226;-73
2021/03/22 13:33:59;;;;;;;4.75;4.35;;;11.10;99.90;;;;;;4936195;29;20213;-74
2021/03/22 13:36:26;;;;;;;4.90;4.50;;;11.10;99.90;;;;;;4917964;29;20211;-74
2021/03/22 13:38:52;;;;;;;4.32;4.03;;;11.10;99.90;;;;;;4917548;29;20695;-71
2021/03/22 13:41:28;;;;;;;5.00;3.92;;;11.20;99.90;;;;;;4918154;29;20238;-71
2021/03/22 13:43:56;;;;;;;4.38;3.65;;;11.30;99.90;;;;;;4917222;29;20206;-71
2021/03/22 13:46:23;;;;;;;4.82;4.43;;;11.30;99.90;;;;;;4936353;29;20303;-72
2021/03/22 13:48:50;;;;;;;4.65;4.10;;;11.20;99.90;;;;;;4926022;29;20238;-74
2021/03/22 13:51:18;;;;;;;4.03;3.72;;;11.20;99.90;;;;;;4917252;29;20222;-74
2021/03/22 13:53:44;;;;;;;5.15;4.40;;;11.10;99.90;;;;;;4916850;29;20214;-74
2021/03/22 13:56:11;;;;;;;3.63;3.33;;;11.00;99.90;;;;;;4934064;29;20209;-74
2021/03/22 13:58:37;;;;;;;4.25;3.30;;;10.90;99.90;;;;;;4937844;29;20255;-74
2021/03/22 14:01:04;;;;;;;5.70;4.03;;;10.80;99.90;;;;;;4939905;29;20284;-74
2021/03/22 14:03:30;;;;;;;4.97;4.50;;;10.70;99.90;;;;;;4939540;29;20209;-74
2021/03/22 14:05:58;;;;;;;4.95;3.80;;;10.60;99.90;;;;;;4923985;29;20218;-74
2021/03/22 14:08:25;;;;;;;5.20;3.33;;;10.60;99.90;;;;;;4921590;29;20214;-73
2021/03/22 14:10:51;;;;;;;3.10;2.90;;;10.60;99.90;;;;;;4921555;29;20239;-74
2021/03/22 14:13:18;;;;;;;4.03;3.22;;;10.60;99.90;;;;;;4919476;29;20213;-73
2021/03/22 14:15:47;;;;;;;3.28;3.05;;;10.60;99.90;;;;;;4934325;29;20357;-74
2021/03/22 14:18:15;;;;;;;5.93;3.60;;;10.50;99.90;;;;;;4938957;29;20214;-74
2021/03/22 14:20:41;;;;;;;3.28;2.63;;;10.50;99.90;;;;;;4940073;29;20229;-74
2021/03/22 14:23:13;;;;;;;3.60;2.80;;;10.50;99.90;;;;;;4940487;29;20284;-74
2021/03/22 14:25:40;;;;;;;6.32;3.08;;;10.60;99.90;;;;;;4927204;29;20207;-73
2021/03/22 14:28:06;;;;;;;4.32;2.80;;;10.50;99.90;;;;;;4920150;29;20210;-73
2021/03/22 14:30:35;;;;;;;2.83;2.63;;;10.40;99.90;;;;;;4920481;29;20317;-74
2021/03/22 14:33:03;;;;;;;3.00;2.80;;;10.30;99.90;;;;;;4919551;29;20230;-74
2021/03/22 14:35:29;;;;;;;5.03;3.60;;;10.30;99.90;;;;;;4931090;29;20212;-74
2021/03/22 14:37:56;;;;;;;4.05;3.75;;;10.30;99.90;;;;;;4939075;29;20205;-74
2021/03/22 14:40:24;;;;;;;3.58;3.17;;;10.30;99.90;;;;;;4939297;29;20248;-74
2021/03/22 14:42:51;;;;;;;5.50;4.15;;;10.30;99.90;;;;;;4937932;29;20289;-73
2021/03/22 14:45:20;;;;;;;3.22;2.83;;;10.30;99.90;;;;;;4929403;29;20250;-73
2021/03/22 14:47:47;;;;;;;2.80;2.55;;;10.40;99.90;;;;;;4919550;29;20215;-73
2021/03/22 14:50:15;;;;;;;2.75;2.40;;;10.30;99.90;;;;;;4919608;29;20218;-73
2021/03/22 14:52:43;;;;;;;4.32;4.00;;;10.20;99.90;;;;;;4919328;29;20214;-74
2021/03/22 14:55:10;;;;;;;2.28;1.98;;;10.10;99.90;;;;;;4926942;29;20202;-74
2021/03/22 14:57:37;;;;;;;4.55;1.90;;;10.10;99.90;;;;;;4937635;29;20198;-73
2021/03/22 15:00:06;;;;;;;3.00;2.33;;;10.00;99.90;;;;;;4938495;29;20206;-74
2021/03/22 15:02:33;;;;;;;2.95;2.30;;;9.90;99.90;;;;;;4937789;29;20682;-73
2021/03/22 15:04:59;;;;;;;1.52;1.40;;;9.90;99.90;;;;;;4933060;29;20214;-74
2021/03/22 15:07:25;;;;;;;2.13;1.80;;;9.90;99.90;;;;;;4920039;29;20533;-73
2021/03/22 15:09:51;;;;;;;5.95;2.00;;;9.90;99.90;;;;;;4920297;29;20217;-74
2021/03/22 15:12:18;;;;;;;2.80;2.42;;;9.80;99.90;;;;;;4919643;29;20230;-73
2021/03/22 15:14:45;;;;;;;1.58;1.48;;;9.70;99.90;;;;;;4923555;29;20206;-74
2021/03/22 15:17:11;;;;;;;3.63;1.67;;;9.70;99.90;;;;;;4940062;29;20225;-74
2021/03/22 15:19:37;;;;;;;2.05;1.40;;;9.60;99.90;;;;;;4939774;29;20214;-74
2021/03/22 15:22:04;;;;;;;2.38;1.80;;;9.60;99.90;;;;;;4938995;29;20240;-73
2021/03/22 15:24:30;;;;;;;3.45;1.80;;;9.50;99.90;;;;;;4935776;29;20582;-73
2021/03/22 15:26:57;;;;;;;1.60;1.52;;;9.50;99.90;;;;;;4918462;29;20225;-74
2021/03/22 15:29:25;;;;;;;2.17;1.33;;;9.50;99.90;;;;;;4919361;29;20211;-73
2021/03/22 15:31:52;;;;;;;6.68;2.08;;;9.50;99.90;;;;;;4917841;29;20222;-73
2021/03/22 15:34:18;;;;;;;1.95;1.38;;;9.40;99.90;;;;;;4918252;29;20563;-73
2021/03/22 15:36:44;;;;;;;1.77;1.17;;;9.40;99.90;;;;;;4937293;29;20221;-73
2021/03/22 15:39:11;;;;;;;1.80;1.67;;;9.30;99.90;;;;;;4938050;29;20400;-72
2021/03/22 15:41:38;;;;;;;2.88;1.60;;;9.20;99.90;;;;;;4931901;29;20222;-73
2021/03/22 15:44:05;;;;;;;1.90;1.80;;;9.20;99.90;;;;;;4920068;29;20214;-74
2021/03/22 15:46:31;;;;;;;1.30;1.30;;;9.10;99.90;;;;;;4937270;29;20240;-74
2021/03/22 15:48:58;;;;;;;1.80;1.70;;;9.20;99.90;;;;;;4936863;29;20222;-73
2021/03/22 15:51:25;;;;;;;2.50;1.95;;;9.20;99.90;;;;;;4933206;29;20222;-74
2021/03/22 15:53:53;;;;;;;3.50;2.33;;;9.20;99.90;;;;;;4917723;29;20233;-74
2021/03/22 15:56:21;;;;;;;3.15;1.70;;;9.10;99.90;;;;;;4917908;29;20211;-75
2021/03/22 15:58:47;;;;;;;1.48;1.45;;;9.10;99.90;;;;;;4917234;29;20218;-74
2021/03/22 16:01:14;;;;;;;1.98;1.88;;;9.10;99.90;;;;;;4920597;29;20245;-74
2021/03/22 16:03:41;;;;;;;2.83;1.88;;;9.10;99.90;;;;;;4936411;29;20304;-74
2021/03/22 16:06:09;;;;;;;1.58;1.48;;;9.10;99.90;;;;;;4936945;29;20218;-72
2021/03/22 16:08:35;;;;;;;2.05;1.40;;;9.10;99.90;;;;;;4936363;29;20301;-72
2021/03/22 16:11:02;;;;;;;6.57;1.80;;;9.10;99.90;;;;;;4935181;29;20544;-72
2021/03/22 16:13:30;;;;;;;1.75;1.40;;;9.10;99.90;;;;;;4916631;29;20366;-72
2021/03/22 16:15:57;;;;;;;3.75;2.30;;;9.10;99.90;;;;;;4917295;29;20211;-70
2021/03/22 16:18:24;;;;;;;1.20;1.20;;;9.00;99.90;;;;;;4916569;29;20218;-72
2021/03/22 16:20:52;;;;;;;1.35;1.25;;;8.90;99.90;;;;;;4929509;29;20233;-71
2021/03/22 16:23:21;;;;;;;2.15;1.40;;;8.90;99.90;;;;;;4935614;29;20240;-72
2021/03/22 16:25:48;;;;;;;1.25;1.17;;;8.80;99.90;;;;;;4935769;29;20214;-73
2021/03/22 16:28:15;;;;;;;1.92;1.67;;;8.80;99.90;;;;;;4935570;29;20217;-72
2021/03/22 16:30:42;;;;;;;4.47;1.60;;;8.80;99.90;;;;;;4924088;29;20222;-71
2021/03/22 16:33:12;;;;;;;1.80;1.70;;;8.70;99.90;;;;;;4916010;29;20266;-72
2021/03/22 16:35:40;;;;;;;4.90;1.80;;;8.60;99.90;;;;;;4916554;29;20687;-72
2021/03/22 16:38:09;;;;;;;1.48;1.38;;;8.60;99.90;;;;;;4916295;29;20241;-72
2021/03/22 16:40:39;;;;;;;4.95;1.75;;;8.60;99.90;;;;;;4927055;29;20313;-73
2021/03/22 16:43:06;;;;;;;1.98;1.40;;;8.50;99.90;;;;;;4935143;29;20706;-74
2021/03/22 16:45:34;;;;;;;2.50;1.55;;;8.50;99.90;;;;;;4935603;29;20297;-72
2021/03/22 16:48:00;;;;;;;7.90;1.92;;;8.50;99.90;;;;;;4935407;29;20206;-72
2021/03/22 16:50:27;;;;;;;2.28;1.10;;;8.40;99.90;;;;;;4926581;29;20421;-72
2021/03/22 16:52:53;;;;;;;1.55;1.45;;;8.40;99.90;;;;;;4916577;29;20202;-72
2021/03/22 16:55:22;;;;;;;3.80;1.35;;;8.40;99.90;;;;;;4916783;29;20211;-71
2021/03/22 16:57:49;;;;;;;5.13;2.00;;;8.40;99.90;;;;;;4916165;29;20211;-71
2021/03/22 17:00:18;;;;;;;1.75;1.38;;;8.30;99.90;;;;;;4924236;29;20206;-71
2021/03/22 17:02:44;;;;;;;1.45;1.35;;;8.30;99.90;;;;;;4935822;29;20226;-72
2021/03/22 17:05:16;;;;;;;1.30;1.20;;;8.30;99.90;;;;;;4935607;29;20682;-71
2021/03/22 17:07:42;;;;;;;2.65;1.52;;;8.30;99.90;;;;;;4935812;29;20194;-71
2021/03/22 17:10:09;;;;;;;6.93;1.77;;;8.20;99.90;;;;;;4928915;29;20203;-71
2021/03/22 17:12:35;;;;;;;3.00;1.35;;;8.20;99.90;;;;;;4916142;29;20218;-71
2021/03/22 17:15:04;;;;;;;2.08;1.75;;;8.20;99.90;;;;;;4916531;29;20214;-71
2021/03/22 17:17:30;;;;;;;1.50;0.63;;;8.10;99.90;;;;;;4916123;29;20211;-71
2021/03/22 17:19:57;;;;;;;1.85;0.80;;;8.10;99.90;;;;;;4920536;29;20228;-71
2021/03/22 17:22:23;;;;;;;1.25;1.25;;;8.10;99.90;;;;;;4934942;29;20234;-72
2021/03/22 17:24:51;;;;;;;1.45;1.35;;;8.00;99.90;;;;;;4916382;29;20287;-73
2021/03/22 17:27:18;;;;;;;1.70;1.60;;;8.00;99.90;;;;;;4916338;29;20210;-72
2021/03/22 17:29:46;;;;;;;4.18;1.83;;;8.00;99.90;;;;;;4918357;29;20203;-73
2021/03/22 17:32:14;;;;;;;5.15;1.63;;;8.00;99.90;;;;;;4933855;29;20226;-73
2021/03/22 17:34:40;;;;;;;2.35;1.20;;;8.00;99.90;;;;;;4934900;29;20647;-72
2021/03/22 17:37:06;;;;;;;1.98;1.73;;;8.00;99.90;;;;;;4935061;29;20217;-72
2021/03/22 17:39:32;;;;;;;2.90;2.00;;;7.90;99.90;;;;;;4934570;29;20220;-72
2021/03/22 17:41:59;;;;;;;2.55;1.60;;;7.90;99.90;;;;;;4915938;29;20235;-72
2021/03/22 17:44:26;;;;;;;4.03;1.10;;;7.90;99.90;;;;;;4916048;29;20207;-73
2021/03/22 17:46:52;;;;;;;1.42;1.33;;;7.90;99.90;;;;;;4915581;29;20214;-72
2021/03/22 17:49:19;;;;;;;3.22;1.60;;;7.80;99.90;;;;;;4916049;29;20281;-72
2021/03/22 17:51:47;;;;;;;4.03;1.80;;;7.80;99.90;;;;;;4932845;29;20304;-72
2021/03/22 17:54:14;;;;;;;2.40;2.15;;;7.80;99.90;;;;;;4934474;29;20214;-72
2021/03/22 17:56:40;;;;;;;6.78;1.38;;;7.80;99.90;;;;;;4934911;29;20221;-72
2021/03/22 17:59:06;;;;;;;1.60;1.50;;;7.70;99.90;;;;;;4934263;29;20209;-72
2021/03/22 18:01:33;;;;;;;3.17;2.60;;;7.70;99.90;;;;;;4934315;29;20241;-72
2021/03/22 18:03:59;;;;;;;1.63;1.50;;;7.70;99.90;;;;;;4933696;29;20244;-72
2021/03/22 18:06:27;;;;;;;1.60;1.50;;;7.70;99.90;;;;;;4934930;29;20210;-71
2021/03/22 18:08:53;;;;;;;2.28;1.80;;;7.60;99.90;;;;;;4932644;29;20551;-72
2021/03/22 18:11:19;;;;;;;1.58;1.30;;;7.60;99.90;;;;;;4932557;29;20237;-71